Time;durP1;ratioP1;P1;durP2;ratioP2;P2;SDS_P1;SDS_P2;PMS_P1;PMS_P2;Temp;Humidity;BMP_temperature;BMP_pressure;BME280_temperature;BME280_humidity;BME280_pressure;Samples;Min_cycle;Max_cycle;Signal;HPM_P1;HPM_P2
2022/08/28 00:00:24;;;;;;;15.23;3.50;;;;;;;;;;5093289;28;20049;-73
2022/08/28 00:02:51;;;;;;;8.52;2.95;;;;;;;;;;5080580;28;20536;-72
2022/08/28 00:05:18;;;;;;;4.95;2.63;;;;;;;;;;5075341;28;20056;-72
2022/08/28 00:07:45;;;;;;;7.50;2.97;;;;;;;;;;5086476;28;20494;-72
2022/08/28 00:10:14;;;;;;;8.18;2.95;;;;;;;;;;5094683;28;20056;-72
2022/08/28 00:12:40;;;;;;;8.93;3.30;;;;;;;;;;5094004;28;20514;-72
2022/08/28 00:15:10;;;;;;;7.22;3.53;;;;;;;;;;5093561;28;20533;-72
2022/08/28 00:17:38;;;;;;;6.13;2.95;;;;;;;;;;5081053;28;20140;-72
2022/08/28 00:20:07;;;;;;;4.68;2.80;;;;;;;;;;5074528;28;20049;-72
2022/08/28 00:22:34;;;;;;;6.32;2.45;;;;;;;;;;5076335;28;20053;-72
2022/08/28 00:25:00;;;;;;;8.32;3.40;;;;;;;;;;5074555;28;20060;-72
2022/08/28 00:30:14;;;;;;;5.25;2.47;;;;;;;;;;5077761;28;20060;-71
2022/08/28 00:32:41;;;;;;;8.52;2.90;;;;;;;;;;5074185;28;20053;-71
2022/08/28 00:35:07;;;;;;;11.57;3.08;;;;;;;;;;5074429;28;20079;-71
2022/08/28 00:37:34;;;;;;;6.03;2.85;;;;;;;;;;5075519;28;20060;-71
2022/08/28 00:40:00;;;;;;;13.57;3.20;;;;;;;;;;5074388;28;20060;-73
2022/08/28 00:42:27;;;;;;;6.13;2.70;;;;;;;;;;5074448;28;20500;-71
2022/08/28 00:44:53;;;;;;;9.30;2.67;;;;;;;;;;5087240;28;20052;-73
2022/08/28 00:47:25;;;;;;;4.47;2.60;;;;;;;;;;5093929;28;20060;-72
2022/08/28 00:49:52;;;;;;;16.00;2.63;;;;;;;;;;5079686;28;20057;-72
2022/08/28 00:52:20;;;;;;;5.45;2.83;;;;;;;;;;5074412;28;20500;-72
2022/08/28 00:54:49;;;;;;;9.20;2.30;;;;;;;;;;5074215;28;20057;-72
2022/08/28 00:57:26;;;;;;;10.20;3.22;;;;;;;;;;5074142;28;20074;-72
2022/08/28 00:59:53;;;;;;;7.82;3.00;;;;;;;;;;5074014;28;20110;-72
2022/08/28 01:02:20;;;;;;;8.05;2.75;;;;;;;;;;5073975;28;20079;-73
2022/08/28 01:04:47;;;;;;;6.60;2.28;;;;;;;;;;5084935;28;20488;-72
2022/08/28 01:07:14;;;;;;;6.57;2.45;;;;;;;;;;5093418;28;20052;-73
2022/08/28 01:09:42;;;;;;;23.90;3.00;;;;;;;;;;5094235;28;20485;-72
2022/08/28 01:12:11;;;;;;;8.30;2.85;;;;;;;;;;5092586;28;20053;-72
2022/08/28 01:14:38;;;;;;;7.47;2.58;;;;;;;;;;5072521;28;20049;-71
2022/08/28 01:17:05;;;;;;;8.35;2.67;;;;;;;;;;5093414;28;20057;-71
2022/08/28 01:19:36;;;;;;;4.55;2.47;;;;;;;;;;5076359;28;20063;-73
2022/08/28 01:22:25;;;;;;;14.60;2.55;;;;;;;;;;5073676;28;20048;-72
2022/08/28 01:24:52;;;;;;;6.70;2.50;;;;;;;;;;5091887;28;20056;-73
2022/08/28 01:27:20;;;;;;;5.18;2.50;;;;;;;;;;5093231;28;20057;-72
2022/08/28 01:29:50;;;;;;;7.80;2.70;;;;;;;;;;5093872;28;20062;-72
2022/08/28 01:32:33;;;;;;;6.40;2.60;;;;;;;;;;5082870;28;20053;-72
2022/08/28 01:35:00;;;;;;;7.65;2.95;;;;;;;;;;5073894;28;20060;-71
2022/08/28 01:37:27;;;;;;;8.93;2.88;;;;;;;;;;5095986;27;20057;-71
2022/08/28 01:39:53;;;;;;;8.60;2.70;;;;;;;;;;5073501;28;20048;-71
2022/08/28 01:42:20;;;;;;;4.63;2.33;;;;;;;;;;5091182;28;20049;-72
2022/08/28 01:44:46;;;;;;;3.97;2.63;;;;;;;;;;5072565;28;20053;-72
2022/08/28 01:47:13;;;;;;;9.23;2.45;;;;;;;;;;5092535;28;20060;-72
2022/08/28 01:49:39;;;;;;;7.72;2.35;;;;;;;;;;5091463;28;20063;-72
2022/08/28 01:52:05;;;;;;;5.75;2.40;;;;;;;;;;5086212;28;20515;-72
2022/08/28 01:54:32;;;;;;;11.57;2.95;;;;;;;;;;5073238;28;20527;-72
2022/08/28 01:56:58;;;;;;;7.47;2.58;;;;;;;;;;5089873;28;20144;-72
2022/08/28 01:59:25;;;;;;;3.63;2.22;;;;;;;;;;5093430;28;20135;-72
2022/08/28 02:01:51;;;;;;;6.15;2.78;;;;;;;;;;5080187;28;20061;-72
2022/08/28 02:04:19;;;;;;;4.35;2.33;;;;;;;;;;5073549;28;20084;-71
2022/08/28 02:06:54;;;;;;;6.15;2.53;;;;;;;;;;5093072;28;20053;-71
2022/08/28 02:09:21;;;;;;;5.60;2.90;;;;;;;;;;5092446;28;20068;-71
2022/08/28 02:11:47;;;;;;;6.10;2.42;;;;;;;;;;5091882;28;20048;-71
2022/08/28 02:14:14;;;;;;;6.70;2.40;;;;;;;;;;5093381;28;20045;-72
2022/08/28 02:16:40;;;;;;;5.75;2.65;;;;;;;;;;5081036;28;20052;-71
2022/08/28 02:19:06;;;;;;;4.15;2.30;;;;;;;;;;5075752;28;20416;-71
2022/08/28 02:21:34;;;;;;;5.13;2.42;;;;;;;;;;5088709;28;20063;-72
2022/08/28 02:24:00;;;;;;;7.85;2.42;;;;;;;;;;5092380;28;20106;-72
2022/08/28 02:26:27;;;;;;;9.32;3.10;;;;;;;;;;5092872;28;20056;-72
2022/08/28 02:28:53;;;;;;;5.82;2.72;;;;;;;;;;5091717;28;20056;-72
2022/08/28 02:31:19;;;;;;;4.80;2.20;;;;;;;;;;5108675;28;20494;-72
2022/08/28 02:33:46;;;;;;;8.65;2.78;;;;;;;;;;5087643;28;20496;-71
2022/08/28 02:36:13;;;;;;;5.63;2.40;;;;;;;;;;5074266;28;20052;-72
2022/08/28 02:38:40;;;;;;;6.90;2.45;;;;;;;;;;5072904;28;20061;-72
2022/08/28 02:41:06;;;;;;;6.40;2.45;;;;;;;;;;5087728;28;20080;-72
2022/08/28 02:43:33;;;;;;;7.40;2.70;;;;;;;;;;5108704;28;20056;-71
2022/08/28 02:45:59;;;;;;;9.45;2.80;;;;;;;;;;5089770;28;20056;-71
2022/08/28 02:48:30;;;;;;;4.40;2.42;;;;;;;;;;5091325;28;20507;-71
2022/08/28 02:50:58;;;;;;;5.43;2.50;;;;;;;;;;5093024;28;20052;-71
2022/08/28 02:53:24;;;;;;;5.28;2.38;;;;;;;;;;5090733;28;20049;-71
2022/08/28 02:55:50;;;;;;;5.03;2.47;;;;;;;;;;5072717;28;20052;-71
2022/08/28 02:58:17;;;;;;;5.97;2.47;;;;;;;;;;5072726;28;20808;-72
2022/08/28 03:00:43;;;;;;;6.22;2.83;;;;;;;;;;5077557;28;20045;-71
2022/08/28 03:03:09;;;;;;;7.30;2.78;;;;;;;;;;5092167;28;20095;-71
2022/08/28 03:05:36;;;;;;;6.10;2.90;;;;;;;;;;5077835;28;20058;-72
2022/08/28 03:08:02;;;;;;;9.50;3.13;;;;;;;;;;5077212;28;20057;-71
2022/08/28 03:10:28;;;;;;;7.45;2.50;;;;;;;;;;5092276;28;20075;-72
2022/08/28 03:12:54;;;;;;;9.30;3.83;;;;;;;;;;5087485;28;20052;-72
2022/08/28 03:15:21;;;;;;;5.72;3.58;;;;;;;;;;5072440;28;20057;-72
2022/08/28 03:17:47;;;;;;;12.98;4.00;;;;;;;;;;5071123;28;20052;-71
2022/08/28 03:20:15;;;;;;;7.40;3.72;;;;;;;;;;5072153;28;20099;-71
2022/08/28 03:25:26;;;;;;;8.10;3.60;;;;;;;;;;5071899;28;20049;-71
2022/08/28 03:27:53;;;;;;;7.97;4.10;;;;;;;;;;5071981;28;20059;-71
2022/08/28 03:30:19;;;;;;;8.82;4.05;;;;;;;;;;5080352;28;20053;-71
2022/08/28 03:32:46;;;;;;;5.78;3.63;;;;;;;;;;5083938;28;20053;-72
2022/08/28 03:35:12;;;;;;;11.68;3.72;;;;;;;;;;5089705;28;20059;-72
2022/08/28 03:37:39;;;;;;;7.25;3.85;;;;;;;;;;5090422;28;20427;-72
2022/08/28 03:40:06;;;;;;;8.52;4.28;;;;;;;;;;5084986;28;20045;-71
2022/08/28 03:42:32;;;;;;;6.30;3.83;;;;;;;;;;5076365;28;20083;-72
2022/08/28 03:44:59;;;;;;;4.80;3.90;;;;;;;;;;5091038;28;20056;-71
2022/08/28 03:47:27;;;;;;;5.75;3.88;;;;;;;;;;5091757;28;20047;-72
2022/08/28 03:49:55;;;;;;;7.35;4.10;;;;;;;;;;5091909;28;20484;-72
2022/08/28 03:52:22;;;;;;;6.55;3.85;;;;;;;;;;5088067;28;20173;-72
2022/08/28 03:54:49;;;;;;;8.68;4.05;;;;;;;;;;5117205;27;20049;-73
2022/08/28 03:57:17;;;;;;;8.15;3.65;;;;;;;;;;5082959;28;20059;-72
2022/08/28 03:59:44;;;;;;;6.05;3.97;;;;;;;;;;5090999;28;20051;-73
2022/08/28 04:02:11;;;;;;;6.47;3.92;;;;;;;;;;5089049;28;20135;-72
2022/08/28 04:04:38;;;;;;;7.90;4.25;;;;;;;;;;5090891;28;20048;-73
2022/08/28 04:07:04;;;;;;;5.25;3.28;;;;;;;;;;5089390;28;20990;-73
2022/08/28 04:09:30;;;;;;;7.63;3.83;;;;;;;;;;5091081;28;20052;-73
2022/08/28 04:11:56;;;;;;;4.55;3.70;;;;;;;;;;5090514;28;20467;-72
2022/08/28 04:14:23;;;;;;;4.95;3.65;;;;;;;;;;5091514;28;20052;-72
2022/08/28 04:16:49;;;;;;;9.10;4.10;;;;;;;;;;5089178;28;20057;-72
2022/08/28 04:19:15;;;;;;;7.88;3.78;;;;;;;;;;5091146;28;20501;-72
2022/08/28 04:21:42;;;;;;;9.02;3.83;;;;;;;;;;5090348;28;20136;-71
2022/08/28 04:24:09;;;;;;;7.38;4.05;;;;;;;;;;5070467;28;20052;-72
2022/08/28 04:26:35;;;;;;;7.43;3.92;;;;;;;;;;5071614;28;20511;-72
2022/08/28 04:29:02;;;;;;;5.55;3.53;;;;;;;;;;5070676;28;20053;-72
2022/08/28 04:31:29;;;;;;;8.48;4.13;;;;;;;;;;5069809;28;20127;-72
2022/08/28 04:33:58;;;;;;;7.75;4.10;;;;;;;;;;5091252;28;20061;-72
2022/08/28 04:36:24;;;;;;;16.23;3.65;;;;;;;;;;5089499;28;20136;-72
2022/08/28 04:38:51;;;;;;;9.07;4.00;;;;;;;;;;5089852;28;20053;-72
2022/08/28 04:41:17;;;;;;;5.15;3.45;;;;;;;;;;5088847;28;20055;-72
2022/08/28 04:43:43;;;;;;;9.30;4.20;;;;;;;;;;5077500;28;20053;-72
2022/08/28 04:46:11;;;;;;;8.10;3.40;;;;;;;;;;5088669;28;20049;-72
2022/08/28 04:48:38;;;;;;;6.55;3.88;;;;;;;;;;5093055;28;20059;-72
2022/08/28 04:51:06;;;;;;;6.25;3.30;;;;;;;;;;5080466;28;20049;-72
2022/08/28 04:53:34;;;;;;;6.47;3.80;;;;;;;;;;5074318;28;20060;-72
2022/08/28 04:56:01;;;;;;;8.27;3.88;;;;;;;;;;5074265;28;20063;-72
2022/08/28 04:58:29;;;;;;;6.75;3.53;;;;;;;;;;5074124;28;20057;-73
2022/08/28 05:00:56;;;;;;;6.38;4.20;;;;;;;;;;5080359;28;20052;-71
2022/08/28 05:03:29;;;;;;;7.47;3.72;;;;;;;;;;5090046;28;20048;-73
2022/08/28 05:05:55;;;;;;;8.30;3.97;;;;;;;;;;5093612;28;20052;-71
2022/08/28 05:08:22;;;;;;;5.07;3.40;;;;;;;;;;5092956;28;20052;-73
2022/08/28 05:10:49;;;;;;;7.07;3.95;;;;;;;;;;5092145;28;20052;-73
2022/08/28 05:13:17;;;;;;;12.13;3.60;;;;;;;;;;5092920;28;20873;-73
2022/08/28 05:15:44;;;;;;;6.97;3.13;;;;;;;;;;5087182;28;20058;-73
2022/08/28 05:18:12;;;;;;;6.07;3.47;;;;;;;;;;5073929;28;20055;-73
2022/08/28 05:20:40;;;;;;;6.50;3.58;;;;;;;;;;5073823;28;20049;-73
2022/08/28 05:23:08;;;;;;;6.20;3.50;;;;;;;;;;5073578;28;20075;-72
2022/08/28 05:25:35;;;;;;;8.38;3.58;;;;;;;;;;5073636;28;20151;-73
2022/08/28 05:28:02;;;;;;;5.53;3.40;;;;;;;;;;5080043;28;20091;-71
2022/08/28 05:30:28;;;;;;;7.38;3.92;;;;;;;;;;5080748;28;20492;-73
2022/08/28 05:32:55;;;;;;;7.05;3.97;;;;;;;;;;5092953;28;20051;-74
2022/08/28 05:35:21;;;;;;;12.43;4.15;;;;;;;;;;5093479;28;20556;-73
2022/08/28 05:37:47;;;;;;;6.60;3.80;;;;;;;;;;5093239;28;20044;-74
2022/08/28 05:40:15;;;;;;;11.35;5.18;;;;;;;;;;5092119;28;20938;-73
2022/08/28 05:42:43;;;;;;;6.93;3.35;;;;;;;;;;5093508;28;20064;-74
2022/08/28 05:45:10;;;;;;;6.45;3.67;;;;;;;;;;5083976;28;20057;-74
2022/08/28 05:47:37;;;;;;;7.38;3.20;;;;;;;;;;5074196;28;20060;-73
2022/08/28 05:50:03;;;;;;;8.02;3.97;;;;;;;;;;5072944;28;20053;-73
2022/08/28 05:52:30;;;;;;;8.13;3.65;;;;;;;;;;5072054;28;20911;-74
2022/08/28 05:54:56;;;;;;;5.97;3.33;;;;;;;;;;5086846;28;20102;-73
2022/08/28 05:57:23;;;;;;;23.90;4.95;;;;;;;;;;5085670;28;20507;-74
2022/08/28 05:59:49;;;;;;;5.55;3.45;;;;;;;;;;5073150;28;20057;-74
2022/08/28 06:02:15;;;;;;;6.00;3.35;;;;;;;;;;5072636;28;20057;-74
2022/08/28 06:04:42;;;;;;;8.13;3.13;;;;;;;;;;5072875;28;20053;-74
2022/08/28 06:07:14;;;;;;;6.38;3.25;;;;;;;;;;5079123;28;20538;-74
2022/08/28 06:09:40;;;;;;;6.93;3.85;;;;;;;;;;5090624;28;20075;-73
2022/08/28 06:12:07;;;;;;;8.48;3.17;;;;;;;;;;5092007;28;20055;-73
2022/08/28 06:14:33;;;;;;;4.72;3.03;;;;;;;;;;5092033;28;20059;-73
2022/08/28 06:17:03;;;;;;;6.13;3.42;;;;;;;;;;5088709;28;20136;-73
2022/08/28 06:19:31;;;;;;;5.47;3.15;;;;;;;;;;5072500;28;20057;-73
2022/08/28 06:21:59;;;;;;;8.88;3.50;;;;;;;;;;5086142;28;20053;-73
2022/08/28 06:24:26;;;;;;;6.55;4.10;;;;;;;;;;5101606;27;20144;-73
2022/08/28 06:26:53;;;;;;;6.63;3.13;;;;;;;;;;5080301;28;20492;-73
2022/08/28 06:29:24;;;;;;;5.40;3.35;;;;;;;;;;5092743;28;20053;-73
2022/08/28 06:31:54;;;;;;;4.93;2.78;;;;;;;;;;5085390;28;20500;-73
2022/08/28 06:34:21;;;;;;;13.10;4.90;;;;;;;;;;5125895;27;20098;-73
2022/08/28 06:36:47;;;;;;;5.82;3.00;;;;;;;;;;5080386;28;20056;-73
2022/08/28 06:39:19;;;;;;;6.68;3.42;;;;;;;;;;5083021;28;20057;-73
2022/08/28 06:41:45;;;;;;;9.68;3.13;;;;;;;;;;5071828;28;20063;-73
2022/08/28 06:44:18;;;;;;;6.82;3.08;;;;;;;;;;5073292;28;20049;-73
2022/08/28 06:46:48;;;;;;;6.25;2.35;;;;;;;;;;5074802;28;20431;-73
2022/08/28 06:49:15;;;;;;;4.13;2.33;;;;;;;;;;5072578;28;20060;-73
2022/08/28 06:51:41;;;;;;;5.38;2.28;;;;;;;;;;5086849;28;20053;-73
2022/08/28 06:54:08;;;;;;;6.65;3.20;;;;;;;;;;5072069;28;20055;-73
2022/08/28 06:56:34;;;;;;;7.38;2.40;;;;;;;;;;5073077;28;20496;-73
2022/08/28 06:59:01;;;;;;;6.30;1.95;;;;;;;;;;5082271;28;20471;-73
2022/08/28 07:01:29;;;;;;;7.30;2.05;;;;;;;;;;5090621;28;20058;-73
2022/08/28 07:03:58;;;;;;;5.72;1.45;;;;;;;;;;5089279;28;20045;-72
2022/08/28 07:06:24;;;;;;;4.05;1.58;;;;;;;;;;5083029;28;20141;-73
2022/08/28 07:08:51;;;;;;;5.93;1.90;;;;;;;;;;5111078;27;20053;-73
2022/08/28 07:11:23;;;;;;;7.78;1.75;;;;;;;;;;5077518;28;20060;-73
2022/08/28 07:13:54;;;;;;;5.68;2.45;;;;;;;;;;5072988;28;20503;-73
2022/08/28 07:16:22;;;;;;;12.48;3.65;;;;;;;;;;5079003;28;20089;-72
2022/08/28 07:18:48;;;;;;;4.38;1.70;;;;;;;;;;5077826;28;20055;-73
2022/08/28 07:21:14;;;;;;;6.70;2.35;;;;;;;;;;5071721;28;20440;-75
2022/08/28 07:23:41;;;;;;;5.75;1.80;;;;;;;;;;5075030;28;20052;-73
2022/08/28 07:26:09;;;;;;;6.30;2.03;;;;;;;;;;5086291;28;20063;-74
2022/08/28 07:28:36;;;;;;;4.47;1.65;;;;;;;;;;5089490;28;20126;-74
2022/08/28 07:31:06;;;;;;;5.57;1.67;;;;;;;;;;5087144;28;20579;-73
2022/08/28 07:33:32;;;;;;;2.80;1.27;;;;;;;;;;5076629;28;20053;-73
2022/08/28 07:35:59;;;;;;;5.28;1.85;;;;;;;;;;5072048;28;20087;-72
2022/08/28 07:38:25;;;;;;;3.60;1.38;;;;;;;;;;5072637;28;20055;-72
2022/08/28 07:40:52;;;;;;;4.00;1.58;;;;;;;;;;5078413;28;20056;-74
2022/08/28 07:46:06;;;;;;;3.60;1.40;;;;;;;;;;5069795;28;20051;-73
2022/08/28 07:48:34;;;;;;;5.68;1.60;;;;;;;;;;5072999;28;20057;-73
2022/08/28 07:51:04;;;;;;;7.35;1.65;;;;;;;;;;5096891;28;20049;-73
2022/08/28 07:53:30;;;;;;;5.65;2.15;;;;;;;;;;5090676;28;20060;-74
2022/08/28 07:56:02;;;;;;;4.82;1.40;;;;;;;;;;5086855;28;20115;-73
2022/08/28 07:58:28;;;;;;;5.63;1.38;;;;;;;;;;5087859;28;20053;-76
2022/08/28 08:00:54;;;;;;;4.45;1.40;;;;;;;;;;5078715;28;20057;-73
2022/08/28 08:03:21;;;;;;;4.20;1.52;;;;;;;;;;5089844;28;20147;-73
2022/08/28 08:05:52;;;;;;;7.88;1.92;;;;;;;;;;5090204;28;20166;-72
2022/08/28 08:08:18;;;;;;;5.15;1.65;;;;;;;;;;5090439;28;20083;-72
2022/08/28 08:10:53;;;;;;;7.10;1.42;;;;;;;;;;5072040;28;20064;-73
2022/08/28 08:13:20;;;;;;;3.28;1.00;;;;;;;;;;5082958;28;20127;-72
2022/08/28 08:15:47;;;;;;;4.75;2.00;;;;;;;;;;5084685;28;20049;-73
2022/08/28 08:18:13;;;;;;;3.75;1.40;;;;;;;;;;5088616;28;20051;-72
2022/08/28 08:20:43;;;;;;;3.78;1.45;;;;;;;;;;5079466;28;20130;-72
2022/08/28 08:23:10;;;;;;;2.10;1.50;;;;;;;;;;5084967;28;20083;-72
2022/08/28 08:25:36;;;;;;;4.22;1.83;;;;;;;;;;5086179;28;20053;-72
2022/08/28 08:28:03;;;;;;;2.90;1.77;;;;;;;;;;5092182;28;20559;-73
2022/08/28 08:30:29;;;;;;;6.72;2.00;;;;;;;;;;5085504;28;20056;-72
2022/08/28 08:32:56;;;;;;;3.75;1.52;;;;;;;;;;5083849;28;20057;-73
2022/08/28 08:35:22;;;;;;;2.30;1.50;;;;;;;;;;5084512;28;20056;-74
2022/08/28 08:37:49;;;;;;;5.78;1.40;;;;;;;;;;5074494;28;20056;-71
2022/08/28 08:40:18;;;;;;;2.80;1.25;;;;;;;;;;5081394;28;20056;-70
2022/08/28 08:42:47;;;;;;;3.78;1.33;;;;;;;;;;5094910;28;20088;-73
2022/08/28 08:45:15;;;;;;;6.95;1.20;;;;;;;;;;5091434;28;20427;-69
2022/08/28 08:47:42;;;;;;;4.43;1.13;;;;;;;;;;5094402;28;20109;-69
2022/08/28 08:50:19;;;;;;;3.53;1.20;;;;;;;;;;5094250;28;20505;-69
2022/08/28 08:52:57;;;;;;;10.77;1.90;;;;;;;;;;5081913;28;20057;-69
2022/08/28 08:55:30;;;;;;;3.10;1.48;;;;;;;;;;5073549;28;20060;-69
2022/08/28 08:58:06;;;;;;;6.15;1.60;;;;;;;;;;5087346;28;20048;-69
2022/08/28 09:00:35;;;;;;;2.95;1.27;;;;;;;;;;5092940;28;20049;-70
2022/08/28 09:03:08;;;;;;;4.45;1.90;;;;;;;;;;5093840;28;20471;-70
2022/08/28 09:05:46;;;;;;;6.95;1.73;;;;;;;;;;5076839;28;20053;-70
2022/08/28 09:08:16;;;;;;;8.98;2.50;;;;;;;;;;5073599;28;20164;-69
2022/08/28 09:10:47;;;;;;;5.78;1.50;;;;;;;;;;5093063;28;20522;-69
2022/08/28 09:13:16;;;;;;;4.15;1.10;;;;;;;;;;5091330;28;20052;-69
2022/08/28 09:15:45;;;;;;;2.17;1.20;;;;;;;;;;5079281;28;20052;-72
2022/08/28 09:18:30;;;;;;;4.47;1.40;;;;;;;;;;5084747;28;20057;-69
2022/08/28 09:20:57;;;;;;;4.70;1.00;;;;;;;;;;5086419;28;20091;-69
2022/08/28 09:23:25;;;;;;;2.33;1.10;;;;;;;;;;5091772;28;20063;-69
2022/08/28 09:25:59;;;;;;;7.65;1.20;;;;;;;;;;5093059;28;20056;-69
2022/08/28 09:28:27;;;;;;;3.88;1.40;;;;;;;;;;5084058;28;20550;-68
2022/08/28 09:30:56;;;;;;;2.70;1.33;;;;;;;;;;5073358;28;20059;-68
2022/08/28 09:33:32;;;;;;;3.15;1.30;;;;;;;;;;5087007;28;20051;-68
2022/08/28 09:36:18;;;;;;;8.07;1.52;;;;;;;;;;5092403;28;20056;-68
2022/08/28 09:38:44;;;;;;;3.00;0.98;;;;;;;;;;5093700;28;20059;-69
2022/08/28 09:43:55;;;;;;;3.25;1.20;;;;;;;;;;5093745;28;20057;-69
2022/08/28 09:46:26;;;;;;;3.20;1.20;;;;;;;;;;5091011;28;20087;-69
2022/08/28 09:49:05;;;;;;;1.52;1.10;;;;;;;;;;5079735;28;20059;-69
2022/08/28 09:51:35;;;;;;;4.18;1.30;;;;;;;;;;5074943;28;20060;-69
2022/08/28 09:54:06;;;;;;;4.03;1.17;;;;;;;;;;5089743;28;20052;-68
2022/08/28 09:56:34;;;;;;;3.90;0.80;;;;;;;;;;5088793;28;20173;-69
2022/08/28 09:59:17;;;;;;;2.67;1.17;;;;;;;;;;5092302;28;20888;-69
2022/08/28 10:01:59;;;;;;;5.63;1.30;;;;;;;;;;5087957;28;20049;-69
2022/08/28 10:04:25;;;;;;;5.72;1.23;;;;;;;;;;5086100;28;20084;-69
2022/08/28 10:06:54;;;;;;;2.15;1.13;;;;;;;;;;5092232;28;20059;-69
2022/08/28 10:09:40;;;;;;;4.32;1.90;;;;;;;;;;5092330;28;20059;-69
2022/08/28 10:12:25;;;;;;;3.75;1.27;;;;;;;;;;5092547;28;20087;-69
2022/08/28 10:14:54;;;;;;;5.35;1.20;;;;;;;;;;5090915;28;20045;-69
2022/08/28 10:17:23;;;;;;;2.88;1.30;;;;;;;;;;5078079;28;20514;-69
2022/08/28 10:19:52;;;;;;;3.15;1.58;;;;;;;;;;5085474;28;20063;-69
2022/08/28 10:22:33;;;;;;;3.42;1.08;;;;;;;;;;5091097;28;20059;-69
2022/08/28 10:25:17;;;;;;;2.15;1.17;;;;;;;;;;5092262;28;20488;-69
2022/08/28 10:27:53;;;;;;;1.60;1.10;;;;;;;;;;5084548;28;20065;-67
2022/08/28 10:30:21;;;;;;;5.07;1.40;;;;;;;;;;5100267;28;20052;-67
2022/08/28 10:32:58;;;;;;;3.40;1.20;;;;;;;;;;5089918;28;20063;-67
2022/08/28 10:35:37;;;;;;;2.80;1.23;;;;;;;;;;5083034;28;20057;-68
2022/08/28 10:38:07;;;;;;;4.70;1.42;;;;;;;;;;5080795;28;20057;-68
2022/08/28 10:40:35;;;;;;;3.60;1.02;;;;;;;;;;5087604;28;20048;-68
2022/08/28 10:43:04;;;;;;;2.38;1.10;;;;;;;;;;5103079;28;20060;-69
2022/08/28 10:45:34;;;;;;;3.25;1.20;;;;;;;;;;5089124;28;20057;-69
2022/08/28 10:48:05;;;;;;;3.45;1.40;;;;;;;;;;5092127;28;20053;-69
2022/08/28 10:50:43;;;;;;;2.55;1.20;;;;;;;;;;5089384;28;20088;-69
2022/08/28 10:53:12;;;;;;;2.30;1.27;;;;;;;;;;5084866;28;20052;-68
2022/08/28 10:55:44;;;;;;;2.90;1.00;;;;;;;;;;5087911;28;20136;-67
2022/08/28 10:58:10;;;;;;;2.85;0.98;;;;;;;;;;5098214;28;20049;-67
2022/08/28 11:00:52;;;;;;;2.10;1.13;;;;;;;;;;5079434;28;20060;-68
2022/08/28 11:03:21;;;;;;;2.45;1.10;;;;;;;;;;5082791;28;20135;-68
2022/08/28 11:06:03;;;;;;;5.47;3.50;;;;;;;;;;5081224;28;20052;-68
2022/08/28 11:08:31;;;;;;;4.47;2.00;;;;;;;;;;5087380;28;20052;-69
2022/08/28 11:11:05;;;;;;;;;;;;;;;;;;5083166;28;20530;-69
2022/08/28 11:13:37;;;;;;;3.90;1.02;;;;;;;;;;5086575;28;45270;-69
2022/08/28 11:16:20;;;;;;;3.85;1.00;;;;;;;;;;5084031;28;20060;-69
2022/08/28 11:18:50;;;;;;;4.78;1.30;;;;;;;;;;5079050;28;20056;-69
2022/08/28 11:21:25;;;;;;;3.67;1.40;;;;;;;;;;5079393;28;20060;-69
2022/08/28 11:23:51;;;;;;;;;;;;;;;;;;5083303;28;21103;-68
2022/08/28 11:26:25;;;;;;;3.28;1.35;;;;;;;;;;5079268;28;41459;-68
2022/08/28 11:28:51;;;;;;;2.97;1.33;;;;;;;;;;5077272;28;20065;-68
2022/08/28 11:31:25;;;;;;;5.95;1.30;;;;;;;;;;5086768;28;20055;-67
2022/08/28 11:33:57;;;;;;;2.65;1.20;;;;;;;;;;5078675;28;20128;-68
2022/08/28 11:36:28;;;;;;;4.03;1.20;;;;;;;;;;5085217;28;20129;-68
2022/08/28 11:38:54;;;;;;;3.33;1.20;;;;;;;;;;5071685;28;20515;-68
2022/08/28 11:41:26;;;;;;;1.92;1.00;;;;;;;;;;5073199;28;20492;-68
2022/08/28 11:43:58;;;;;;;2.35;1.20;;;;;;;;;;5100346;28;21931;-68
2022/08/28 11:46:29;;;;;;;1.50;1.27;;;;;;;;;;5071311;28;20515;-69
2022/08/28 11:48:57;;;;;;;4.93;2.05;;;;;;;;;;5071322;28;20143;-68
2022/08/28 11:51:38;;;;;;;2.58;1.20;;;;;;;;;;5088387;28;20057;-69
2022/08/28 11:54:19;;;;;;;1.75;1.02;;;;;;;;;;5089004;28;20510;-69
2022/08/28 11:57:03;;;;;;;5.07;1.20;;;;;;;;;;5081050;28;20055;-69
2022/08/28 11:59:38;;;;;;;2.58;1.02;;;;;;;;;;5104864;28;20062;-69
2022/08/28 12:02:24;;;;;;;2.40;1.27;;;;;;;;;;5085799;27;20945;-69
2022/08/28 12:04:50;;;;;;;;;;;;;;;;;;5091484;28;20049;-70
2022/08/28 12:07:18;;;;;;;2.00;0.93;;;;;;;;;;5094258;28;44794;-70
2022/08/28 12:09:48;;;;;;;4.50;1.10;;;;;;;;;;5094820;28;20067;-69
2022/08/28 12:12:21;;;;;;;2.42;1.10;;;;;;;;;;5085275;28;20412;-69
2022/08/28 12:14:47;;;;;;;2.90;1.20;;;;;;;;;;5074861;28;20059;-69
2022/08/28 12:17:13;;;;;;;3.92;1.25;;;;;;;;;;5075736;28;20063;-69
2022/08/28 12:19:42;;;;;;;6.65;1.85;;;;;;;;;;5074088;28;20053;-69
2022/08/28 12:22:25;;;;;;;3.03;1.58;;;;;;;;;;5078892;28;20063;-69
2022/08/28 12:24:55;;;;;;;1.85;1.10;;;;;;;;;;5092570;28;20044;-69
2022/08/28 12:27:22;;;;;;;3.85;1.20;;;;;;;;;;5091152;28;20056;-69
2022/08/28 12:29:51;;;;;;;2.35;1.20;;;;;;;;;;5078991;28;20048;-70
2022/08/28 12:32:18;;;;;;;4.68;1.05;;;;;;;;;;5076509;28;20055;-69
2022/08/28 12:34:56;;;;;;;2.33;1.20;;;;;;;;;;5074682;28;20053;-70
2022/08/28 12:37:28;;;;;;;1.70;0.90;;;;;;;;;;5074953;28;20530;-70
2022/08/28 12:39:57;;;;;;;2.28;1.23;;;;;;;;;;5093924;28;20058;-70
2022/08/28 12:42:28;;;;;;;2.75;1.13;;;;;;;;;;5076962;28;20420;-70
2022/08/28 12:44:58;;;;;;;2.35;1.10;;;;;;;;;;5079449;28;20056;-70
2022/08/28 12:47:24;;;;;;;2.75;1.30;;;;;;;;;;5091834;28;20051;-69
2022/08/28 12:49:51;;;;;;;2.70;1.40;;;;;;;;;;5093252;28;20514;-70
2022/08/28 12:52:19;;;;;;;1.63;1.15;;;;;;;;;;5094177;28;20503;-69
2022/08/28 12:54:46;;;;;;;2.90;1.10;;;;;;;;;;5087668;28;20057;-69
2022/08/28 12:57:14;;;;;;;6.95;1.42;;;;;;;;;;5093222;28;20059;-69
2022/08/28 12:59:45;;;;;;;2.67;1.08;;;;;;;;;;5096555;28;20056;-70
2022/08/28 13:02:17;;;;;;;1.92;0.90;;;;;;;;;;5093709;28;20052;-70
2022/08/28 13:04:52;;;;;;;2.35;1.08;;;;;;;;;;5084671;28;20513;-70
2022/08/28 13:07:26;;;;;;;1.10;0.90;;;;;;;;;;5074546;28;20060;-69
2022/08/28 13:10:00;;;;;;;1.35;0.95;;;;;;;;;;5073763;28;20045;-72
2022/08/28 13:12:34;;;;;;;1.50;1.10;;;;;;;;;;5077651;28;20048;-70
2022/08/28 13:15:39;;;;;;;1.23;0.93;;;;;;;;;;5072052;28;20095;-69
2022/08/28 13:18:07;;;;;;;1.42;1.08;;;;;;;;;;5073684;28;20061;-72
2022/08/28 13:20:35;;;;;;;2.75;0.90;;;;;;;;;;5106879;27;20531;-73
2022/08/28 13:23:02;;;;;;;2.88;1.20;;;;;;;;;;5086085;28;20055;-69
2022/08/28 13:25:34;;;;;;;2.38;1.10;;;;;;;;;;5083068;28;20053;-69
2022/08/28 13:28:10;;;;;;;2.03;1.15;;;;;;;;;;5092494;28;20063;-70
2022/08/28 13:30:37;;;;;;;2.75;1.13;;;;;;;;;;5080596;28;20480;-70
2022/08/28 13:33:25;;;;;;;2.50;1.35;;;;;;;;;;5090880;28;20057;-68
2022/08/28 13:35:52;;;;;;;2.22;1.30;;;;;;;;;;5076143;28;20523;-68
2022/08/28 13:38:19;;;;;;;5.80;1.73;;;;;;;;;;5091280;28;20048;-69
2022/08/28 13:40:50;;;;;;;3.45;1.40;;;;;;;;;;5090816;28;20044;-72
2022/08/28 13:43:26;;;;;;;3.97;0.90;;;;;;;;;;5091910;28;20052;-71
2022/08/28 13:45:52;;;;;;;2.80;1.27;;;;;;;;;;5091117;28;20056;-70
2022/08/28 13:48:20;;;;;;;3.65;1.52;;;;;;;;;;5085530;28;20139;-71
2022/08/28 13:50:49;;;;;;;3.17;1.20;;;;;;;;;;5084185;28;20063;-72
2022/08/28 13:53:17;;;;;;;3.25;1.40;;;;;;;;;;5092592;28;20463;-72
2022/08/28 13:55:44;;;;;;;3.45;1.27;;;;;;;;;;5090191;28;20053;-69
2022/08/28 13:58:11;;;;;;;5.57;1.80;;;;;;;;;;5084805;28;20481;-70
2022/08/28 14:00:40;;;;;;;2.17;1.00;;;;;;;;;;5100172;28;20048;-70
2022/08/28 14:05:53;;;;;;;3.55;1.27;;;;;;;;;;5092678;28;20139;-70
2022/08/28 14:08:20;;;;;;;3.03;1.38;;;;;;;;;;5087787;28;20059;-70
2022/08/28 14:10:49;;;;;;;5.22;1.77;;;;;;;;;;5080198;28;20063;-69
2022/08/28 14:13:16;;;;;;;6.50;1.58;;;;;;;;;;5084540;28;20508;-70
2022/08/28 14:15:42;;;;;;;6.72;1.95;;;;;;;;;;5089026;28;20063;-70
2022/08/28 14:18:08;;;;;;;1.83;1.20;;;;;;;;;;5090934;28;20460;-70
2022/08/28 14:20:36;;;;;;;3.95;1.23;;;;;;;;;;5092415;28;20054;-70
2022/08/28 14:23:03;;;;;;;5.28;1.58;;;;;;;;;;5092229;28;20059;-70
2022/08/28 14:25:30;;;;;;;3.50;1.73;;;;;;;;;;5089809;28;20543;-70
2022/08/28 14:28:01;;;;;;;2.30;1.10;;;;;;;;;;5090507;28;20164;-70
2022/08/28 14:30:28;;;;;;;2.03;1.23;;;;;;;;;;5092559;28;20056;-69
2022/08/28 14:32:54;;;;;;;2.53;1.40;;;;;;;;;;5092060;28;20055;-70
2022/08/28 14:35:21;;;;;;;2.47;1.27;;;;;;;;;;5091957;28;20059;-72
2022/08/28 14:37:47;;;;;;;7.47;1.40;;;;;;;;;;5089713;28;20052;-68
2022/08/28 14:40:14;;;;;;;4.55;1.88;;;;;;;;;;5083404;28;20514;-69
2022/08/28 14:42:40;;;;;;;3.40;1.77;;;;;;;;;;5088618;28;20053;-68
2022/08/28 14:45:13;;;;;;;3.88;1.30;;;;;;;;;;5078561;28;20519;-67
2022/08/28 14:47:39;;;;;;;3.13;1.50;;;;;;;;;;5076341;28;20499;-70
2022/08/28 14:50:06;;;;;;;2.08;1.27;;;;;;;;;;5071440;28;20175;-70
2022/08/28 14:52:32;;;;;;;5.20;2.20;;;;;;;;;;5088790;28;20056;-70
2022/08/28 14:54:58;;;;;;;3.20;1.48;;;;;;;;;;5084576;28;20053;-70
2022/08/28 14:57:25;;;;;;;2.42;1.02;;;;;;;;;;5090063;28;20063;-70
2022/08/28 14:59:51;;;;;;;10.48;1.58;;;;;;;;;;5092155;28;20051;-70
2022/08/28 15:02:17;;;;;;;3.40;1.33;;;;;;;;;;5091907;28;20048;-70
2022/08/28 15:04:44;;;;;;;1.50;1.20;;;;;;;;;;5084088;28;20061;-70
2022/08/28 15:07:11;;;;;;;3.72;1.77;;;;;;;;;;5077269;28;20128;-70